createdAt,value
2022-08-22T00:00:39.061Z,12.80
2022-08-22T00:03:07.733Z,10.98
2022-08-22T00:03:15.752Z,11.70
2022-08-22T00:06:02.683Z,11.85
2022-08-22T00:08:37.579Z,8.77
2022-08-22T00:11:12.089Z,12.95
2022-08-22T00:13:44.832Z,11.73
2022-08-22T00:16:19.235Z,11.10
2022-08-22T00:18:52.732Z,9.30
2022-08-22T00:21:25.654Z,8.85
2022-08-22T00:24:00.856Z,13.48
2022-08-22T00:26:35.808Z,11.40
2022-08-22T00:29:09.282Z,12.98
2022-08-22T00:31:40.518Z,9.18
2022-08-22T00:34:13.088Z,9.25
2022-08-22T00:36:47.947Z,8.25
2022-08-22T00:39:21.321Z,11.77
2022-08-22T00:42:29.412Z,15.88
2022-08-22T00:45:27.097Z,10.15
2022-08-22T00:48:09.323Z,9.13
2022-08-22T00:51:00.442Z,12.70
2022-08-22T00:53:46.315Z,9.57
2022-08-22T00:56:52.307Z,12.35
2022-08-22T00:59:39.803Z,9.77
2022-08-22T01:02:21.796Z,10.90
2022-08-22T01:04:55.648Z,12.50
2022-08-22T01:07:38.594Z,11.88
2022-08-22T01:10:20.054Z,11.68
2022-08-22T01:12:59.500Z,13.20
2022-08-22T01:15:30.192Z,9.97
2022-08-22T01:18:36.099Z,11.45
2022-08-22T01:21:52.265Z,10.80
2022-08-22T01:25:13.141Z,10.32
2022-08-22T01:28:21.285Z,10.13
2022-08-22T01:31:06.431Z,10.75
2022-08-22T01:34:12.877Z,11.85
2022-08-22T01:37:19.812Z,12.93
2022-08-22T01:40:08.242Z,15.30
2022-08-22T01:42:50.597Z,10.98
2022-08-22T01:45:58.648Z,11.75
2022-08-22T01:48:35.706Z,15.10
2022-08-22T01:51:15.389Z,14.23
2022-08-22T01:53:48.824Z,17.60
2022-08-22T01:56:19.983Z,12.00
2022-08-22T01:58:57.221Z,14.10
2022-08-22T02:01:37.337Z,13.50
2022-08-22T02:04:08.811Z,16.38
2022-08-22T02:06:46.673Z,12.45
2022-08-22T02:09:27.597Z,14.10
2022-08-22T02:11:58.043Z,16.38
2022-08-22T02:14:38.116Z,13.30
2022-08-22T02:17:16.020Z,16.83
2022-08-22T02:19:50.346Z,11.75
2022-08-22T02:22:29.744Z,11.23
2022-08-22T02:25:09.110Z,14.77
2022-08-22T02:27:45.954Z,13.80
2022-08-22T02:30:17.699Z,14.38
2022-08-22T02:33:02.161Z,14.68
2022-08-22T02:35:34.510Z,13.48
2022-08-22T02:38:13.463Z,15.98
2022-08-22T02:40:45.759Z,13.00
2022-08-22T02:43:20.779Z,14.88
2022-08-22T02:45:54.027Z,19.00
2022-08-22T02:48:34.564Z,14.90
2022-08-22T02:51:07.790Z,20.38
2022-08-22T02:53:46.038Z,14.82
2022-08-22T02:56:18.306Z,12.27
2022-08-22T02:58:59.219Z,17.58
2022-08-22T03:01:41.160Z,12.40
2022-08-22T03:04:38.129Z,22.48
2022-08-22T03:07:13.149Z,18.27
2022-08-22T03:09:50.258Z,12.75
2022-08-22T03:12:24.315Z,13.65
2022-08-22T03:15:00.317Z,16.50
2022-08-22T03:17:33.396Z,10.88
2022-08-22T03:20:07.665Z,17.08
2022-08-22T03:22:43.852Z,11.50
2022-08-22T03:25:24.174Z,10.52
2022-08-22T03:27:57.056Z,19.90
2022-08-22T03:30:33.639Z,13.27
2022-08-22T03:33:18.205Z,12.90
2022-08-22T03:36:01.269Z,17.00
2022-08-22T03:38:44.751Z,15.98
2022-08-22T03:41:45.593Z,15.60
2022-08-22T03:47:02.110Z,11.10
2022-08-22T03:50:05.709Z,11.57
2022-08-22T03:53:04.919Z,11.55
2022-08-22T03:55:44.443Z,10.43
2022-08-22T03:58:49.658Z,17.60
2022-08-22T04:01:43.969Z,20.30
2022-08-22T04:04:48.460Z,15.15
2022-08-22T04:07:33.543Z,14.73
2022-08-22T04:10:45.097Z,15.70
2022-08-22T04:13:48.711Z,14.23
2022-08-22T04:16:51.118Z,13.52
2022-08-22T04:19:34.206Z,14.93
2022-08-22T04:22:18.000Z,14.15
2022-08-22T04:25:03.596Z,14.45
2022-08-22T04:27:39.430Z,18.60
2022-08-22T04:30:22.344Z,14.90
2022-08-22T04:32:58.794Z,15.60
2022-08-22T04:35:33.000Z,20.58
2022-08-22T04:38:04.632Z,12.82
2022-08-22T04:40:37.923Z,18.75
2022-08-22T04:43:11.527Z,12.10
2022-08-22T04:45:45.209Z,14.63
2022-08-22T04:48:20.230Z,13.77
2022-08-22T04:50:52.489Z,21.83
2022-08-22T04:53:54.000Z,18.30
2022-08-22T04:56:28.695Z,14.52
2022-08-22T04:59:00.041Z,13.65
2022-08-22T05:01:40.738Z,12.90
2022-08-22T05:04:14.002Z,15.75
2022-08-22T05:06:46.979Z,18.92
2022-08-22T05:09:19.029Z,16.33
2022-08-22T05:11:50.111Z,16.35
2022-08-22T05:14:21.565Z,14.60
2022-08-22T05:16:52.643Z,13.48
2022-08-22T05:19:31.732Z,15.25
2022-08-22T05:22:01.071Z,13.68
2022-08-22T05:24:34.198Z,14.85
2022-08-22T05:27:07.645Z,21.40
2022-08-22T05:29:40.666Z,23.80
2022-08-22T05:32:13.732Z,16.40
2022-08-22T05:34:44.939Z,23.67
2022-08-22T05:37:15.863Z,19.10
2022-08-22T05:39:47.946Z,19.73
2022-08-22T05:42:22.296Z,23.40
2022-08-22T05:44:51.215Z,20.40
2022-08-22T05:47:24.286Z,13.15
2022-08-22T05:50:00.367Z,21.45
2022-08-22T05:52:40.028Z,15.07
2022-08-22T05:55:19.965Z,16.73
2022-08-22T05:57:53.710Z,13.60
2022-08-22T06:00:23.919Z,20.52
2022-08-22T06:05:27.093Z,15.70
2022-08-22T06:08:00.773Z,17.77
2022-08-22T06:10:34.203Z,18.98
2022-08-22T06:13:11.706Z,17.13
2022-08-22T06:15:48.134Z,18.88
2022-08-22T06:18:18.771Z,11.70
2022-08-22T06:23:23.325Z,14.10
2022-08-22T06:25:53.375Z,15.52
2022-08-22T06:28:23.889Z,15.18
2022-08-22T06:30:54.251Z,14.30
2022-08-22T06:33:27.089Z,19.08
2022-08-22T06:36:20.610Z,16.38
2022-08-22T06:38:55.639Z,12.60
2022-08-22T06:41:28.572Z,19.60
2022-08-22T06:43:58.633Z,12.88
2022-08-22T06:46:29.358Z,9.88
2022-08-22T06:49:00.793Z,16.55
2022-08-22T06:51:31.465Z,11.85
2022-08-22T06:54:04.844Z,9.05
2022-08-22T06:56:40.027Z,15.00
2022-08-22T06:59:12.258Z,7.00
2022-08-22T07:01:48.212Z,8.13
2022-08-22T07:04:17.441Z,12.73
2022-08-22T07:06:50.545Z,19.75
2022-08-22T07:09:25.073Z,11.05
2022-08-22T07:11:55.187Z,12.27
2022-08-22T07:14:29.955Z,10.70
2022-08-22T07:17:00.420Z,17.35
2022-08-22T07:19:32.038Z,19.45
2022-08-22T07:22:12.770Z,8.73
2022-08-22T07:24:45.967Z,11.25
2022-08-22T07:27:23.888Z,15.25
2022-08-22T07:29:59.976Z,14.65
2022-08-22T07:32:34.606Z,16.20
2022-08-22T07:35:11.224Z,11.43
2022-08-22T07:37:55.115Z,10.65
2022-08-22T07:40:28.558Z,10.65
2022-08-22T07:43:02.003Z,13.73
2022-08-22T07:45:36.763Z,10.65
2022-08-22T07:48:25.854Z,12.77
2022-08-22T07:51:01.696Z,16.00
2022-08-22T07:53:37.935Z,8.18
2022-08-22T07:56:09.255Z,9.27
2022-08-22T07:58:40.536Z,10.00
2022-08-22T08:01:11.526Z,12.52
2022-08-22T08:03:40.567Z,7.05
2022-08-22T08:06:10.685Z,5.80
2022-08-22T08:08:42.891Z,6.05
2022-08-22T08:11:15.087Z,12.55
2022-08-22T08:13:45.664Z,9.20
2022-08-22T08:16:19.854Z,9.82
2022-08-22T08:18:50.901Z,17.13
2022-08-22T08:21:30.036Z,11.63
2022-08-22T08:24:02.155Z,12.52
2022-08-22T08:26:33.389Z,8.27
2022-08-22T08:29:02.876Z,9.70
2022-08-22T08:31:35.504Z,13.88
2022-08-22T08:34:09.775Z,12.52
2022-08-22T08:36:41.763Z,13.85
2022-08-22T08:39:19.683Z,9.70
2022-08-22T08:42:16.585Z,10.07
2022-08-22T08:45:03.222Z,8.73
2022-08-22T08:47:47.995Z,10.35
2022-08-22T08:50:31.562Z,13.07
2022-08-22T08:53:21.876Z,11.75
2022-08-22T08:55:58.332Z,6.25
2022-08-22T08:58:37.984Z,10.82
2022-08-22T09:04:15.404Z,7.13
2022-08-22T09:07:23.529Z,7.05
2022-08-22T09:10:08.356Z,9.50
2022-08-22T09:13:11.710Z,7.80
2022-08-22T09:16:05.562Z,7.13
2022-08-22T09:18:50.213Z,9.55
2022-08-22T09:21:49.622Z,10.18
2022-08-22T09:24:41.308Z,6.05
2022-08-22T09:27:14.868Z,8.73
2022-08-22T09:29:54.514Z,6.05
2022-08-22T09:32:33.870Z,5.72
2022-08-22T09:35:07.534Z,7.50
2022-08-22T09:37:43.555Z,6.78
2022-08-22T09:40:19.605Z,8.50
2022-08-22T09:42:56.561Z,8.63
2022-08-22T09:45:47.241Z,13.45
2022-08-22T09:48:32.644Z,9.48
2022-08-22T09:51:31.175Z,10.20
2022-08-22T09:54:20.523Z,7.60
2022-08-22T09:57:02.576Z,16.13
2022-08-22T09:59:42.991Z,7.88
2022-08-22T10:04:47.716Z,9.85
2022-08-22T10:07:52.792Z,6.38
2022-08-22T10:10:38.782Z,15.95
2022-08-22T10:13:13.361Z,11.18
2022-08-22T10:15:46.136Z,7.38
2022-08-22T10:18:30.509Z,7.85
2022-08-22T10:21:09.200Z,12.23
2022-08-22T10:23:41.057Z,10.70
2022-08-22T10:26:22.667Z,7.50
2022-08-22T10:28:57.765Z,8.68
2022-08-22T10:31:32.543Z,14.50
2022-08-22T10:34:09.082Z,9.40
2022-08-22T10:36:48.305Z,10.43
2022-08-22T10:39:22.681Z,13.07
2022-08-22T10:42:10.106Z,6.70
2022-08-22T10:44:43.077Z,7.55
2022-08-22T10:47:16.619Z,10.98
2022-08-22T10:49:52.084Z,9.40
2022-08-22T10:52:25.620Z,14.40
2022-08-22T10:55:00.611Z,7.03
2022-08-22T10:58:00.043Z,5.03
2022-08-22T11:00:46.046Z,10.15
2022-08-22T11:03:21.888Z,14.18
2022-08-22T11:05:55.020Z,8.60
2022-08-22T11:08:34.863Z,8.63
2022-08-22T11:11:09.170Z,8.88
2022-08-22T11:13:43.490Z,12.55
2022-08-22T11:16:24.147Z,10.38
2022-08-22T11:19:15.181Z,17.48
2022-08-22T11:22:00.385Z,8.50
2022-08-22T11:25:04.500Z,11.60
2022-08-22T11:27:40.879Z,7.05
2022-08-22T11:30:18.544Z,9.30
2022-08-22T11:33:13.760Z,10.13
2022-08-22T11:35:46.293Z,6.43
2022-08-22T11:38:32.431Z,11.93
2022-08-22T11:41:05.935Z,10.93
2022-08-22T11:43:51.108Z,7.97
2022-08-22T11:46:23.822Z,10.57
2022-08-22T11:49:09.166Z,6.28
2022-08-22T11:51:58.773Z,11.00
2022-08-22T11:54:46.924Z,8.23
2022-08-22T11:57:19.276Z,8.90
2022-08-22T12:00:06.059Z,9.73
2022-08-22T12:02:45.522Z,16.33
2022-08-22T12:05:26.342Z,18.15
2022-08-22T12:07:58.515Z,8.73
2022-08-22T12:10:31.605Z,10.93
2022-08-22T12:13:02.177Z,8.13
2022-08-22T12:15:38.436Z,10.48
2022-08-22T12:18:36.373Z,5.97
2022-08-22T12:21:38.441Z,9.07
2022-08-22T12:24:32.007Z,9.38
2022-08-22T12:27:41.375Z,9.13
2022-08-22T12:30:23.173Z,9.80
2022-08-22T12:33:24.355Z,8.70
2022-08-22T12:36:20.261Z,13.15
2022-08-22T12:39:02.153Z,11.48
2022-08-22T12:42:04.079Z,7.93
2022-08-22T12:44:42.033Z,18.73
2022-08-22T12:47:24.491Z,12.80
2022-08-22T12:50:13.624Z,8.40
2022-08-22T12:52:55.384Z,18.90
2022-08-22T12:55:36.941Z,19.52
2022-08-22T12:58:13.208Z,13.70
2022-08-22T13:00:45.340Z,9.95
2022-08-22T13:03:23.193Z,13.10
2022-08-22T13:05:56.752Z,15.88
2022-08-22T13:08:31.019Z,20.00
2022-08-22T13:11:02.554Z,12.55
2022-08-22T13:13:37.184Z,11.18
2022-08-22T13:16:12.026Z,15.18
2022-08-22T13:18:53.453Z,8.88
2022-08-22T13:21:25.191Z,6.07
2022-08-22T13:23:59.073Z,14.15
2022-08-22T13:26:33.232Z,12.35
2022-08-22T13:32:02.135Z,9.68
2022-08-22T13:34:40.013Z,17.50
2022-08-22T13:37:13.615Z,12.75
2022-08-22T13:39:45.798Z,14.13
2022-08-22T13:42:20.226Z,9.70
2022-08-22T13:45:02.974Z,9.20
2022-08-22T13:47:39.465Z,11.65
2022-08-22T13:50:14.138Z,13.57
2022-08-22T13:52:52.357Z,13.15
2022-08-22T13:55:34.224Z,15.73
2022-08-22T13:58:11.033Z,12.70
2022-08-22T14:01:08.927Z,13.68
2022-08-22T14:03:48.566Z,25.35
2022-08-22T14:06:35.304Z,14.50
2022-08-22T14:09:17.611Z,16.83
2022-08-22T14:12:12.304Z,12.35
2022-08-22T14:14:43.524Z,13.38
2022-08-22T14:17:17.421Z,17.15
2022-08-22T14:19:58.638Z,11.63
2022-08-22T14:22:32.220Z,10.38
2022-08-22T14:25:07.365Z,17.17
2022-08-22T14:27:39.785Z,11.02
2022-08-22T14:30:15.616Z,12.30
2022-08-22T14:32:48.947Z,11.32
2022-08-22T14:35:35.371Z,12.73
2022-08-22T14:38:36.483Z,24.23
2022-08-22T14:41:07.262Z,15.77
2022-08-22T14:43:50.205Z,14.90
2022-08-22T14:46:26.866Z,14.65
2022-08-22T14:49:26.948Z,8.45
2022-08-22T14:52:08.985Z,11.25
2022-08-22T14:54:38.092Z,10.98
2022-08-22T14:57:10.553Z,16.95
2022-08-22T14:59:45.364Z,9.80
2022-08-22T15:02:18.016Z,15.60
2022-08-22T15:04:48.845Z,14.85
2022-08-22T15:07:25.762Z,13.20
2022-08-22T15:09:57.038Z,16.55
2022-08-22T15:12:29.720Z,17.60
2022-08-22T15:15:01.133Z,20.95
2022-08-22T15:17:37.231Z,10.45
2022-08-22T15:20:15.048Z,16.88
2022-08-22T15:22:46.863Z,11.98
2022-08-22T15:25:18.442Z,14.60
2022-08-22T15:27:50.855Z,8.15
2022-08-22T15:30:21.184Z,14.38
2022-08-22T15:32:50.251Z,11.23
2022-08-22T15:35:30.010Z,17.35
2022-08-22T15:38:02.560Z,11.75
2022-08-22T15:40:42.705Z,15.38
2022-08-22T15:43:22.447Z,14.50
2022-08-22T15:45:53.245Z,14.43
2022-08-22T15:48:31.334Z,15.43
2022-08-22T15:51:02.670Z,10.77
2022-08-22T15:53:34.794Z,13.13
2022-08-22T15:56:25.072Z,18.27
2022-08-22T15:59:26.492Z,11.75
2022-08-22T16:01:58.087Z,14.73
2022-08-22T16:04:49.455Z,13.43
2022-08-22T16:07:34.886Z,22.85
2022-08-22T16:10:09.531Z,15.00
2022-08-22T16:12:41.130Z,15.70
2022-08-22T16:15:51.523Z,21.10
2022-08-22T16:18:59.947Z,15.35
2022-08-22T16:22:12.810Z,13.27
2022-08-22T16:25:03.000Z,13.60
2022-08-22T16:27:32.279Z,17.13
2022-08-22T16:30:06.421Z,12.90
2022-08-22T16:32:35.614Z,16.35
2022-08-22T16:35:04.799Z,15.27
2022-08-22T16:37:48.070Z,20.23
2022-08-22T16:40:26.188Z,14.93
2022-08-22T16:43:14.330Z,11.77
2022-08-22T16:45:45.564Z,15.93
2022-08-22T16:48:28.482Z,14.10
2022-08-22T16:51:13.363Z,14.70
2022-08-22T16:54:08.911Z,8.65
2022-08-22T16:56:45.382Z,10.52
2022-08-22T16:59:51.963Z,20.10
2022-08-22T17:02:42.720Z,19.40
2022-08-22T17:05:33.615Z,14.27
2022-08-22T17:08:27.816Z,14.70
2022-08-22T17:11:07.266Z,13.55
2022-08-22T17:13:58.090Z,21.67
2022-08-22T17:16:50.893Z,16.42
2022-08-22T17:19:32.591Z,20.05
2022-08-22T17:22:05.902Z,19.63
2022-08-22T17:24:39.596Z,12.63
2022-08-22T17:27:27.794Z,12.07
2022-08-22T17:30:02.647Z,16.02
2022-08-22T17:32:36.666Z,17.20
2022-08-22T17:35:16.124Z,20.38
2022-08-22T17:37:50.529Z,14.88
2022-08-22T17:40:32.333Z,12.35
2022-08-22T17:43:14.965Z,13.95
2022-08-22T17:46:06.978Z,16.58
2022-08-22T17:48:46.083Z,22.95
2022-08-22T17:51:26.506Z,19.80
2022-08-22T17:54:01.985Z,18.92
2022-08-22T17:56:36.478Z,14.13
2022-08-22T17:59:11.134Z,15.05
2022-08-22T18:01:45.724Z,16.27
2022-08-22T18:04:21.388Z,20.83
2022-08-22T18:06:56.165Z,23.48
2022-08-22T18:09:32.890Z,16.73
2022-08-22T18:12:04.753Z,32.72
2022-08-22T18:14:47.156Z,19.98
2022-08-22T18:17:20.876Z,16.38
2022-08-22T18:19:56.136Z,14.48
2022-08-22T18:22:30.485Z,16.25
2022-08-22T18:25:05.755Z,12.57
2022-08-22T18:27:38.707Z,19.25
2022-08-22T18:30:19.811Z,15.45
2022-08-22T18:32:54.959Z,18.75
2022-08-22T18:35:28.843Z,20.25
2022-08-22T18:38:02.187Z,8.90
2022-08-22T18:40:46.857Z,17.02
2022-08-22T18:43:24.217Z,15.75
2022-08-22T18:46:04.328Z,16.92
2022-08-22T18:51:25.711Z,18.83
2022-08-22T18:53:56.903Z,15.68
2022-08-22T18:57:07.628Z,17.38
2022-08-22T18:59:47.000Z,22.27
2022-08-22T19:02:35.872Z,18.43
2022-08-22T19:05:21.878Z,17.38
2022-08-22T19:08:12.132Z,19.77
2022-08-22T19:13:38.318Z,21.35
2022-08-22T19:16:20.989Z,18.85
2022-08-22T19:18:55.950Z,12.73
2022-08-22T19:21:45.906Z,13.82
2022-08-22T19:24:37.778Z,18.08
2022-08-22T19:27:30.875Z,15.10
2022-08-22T19:30:02.376Z,14.77
2022-08-22T19:32:59.113Z,20.35
2022-08-22T19:35:37.363Z,14.40
2022-08-22T19:38:07.289Z,20.10
2022-08-22T19:43:29.748Z,13.18
2022-08-22T19:45:59.321Z,18.77
2022-08-22T19:48:31.690Z,16.33
2022-08-22T19:51:23.868Z,13.25
2022-08-22T19:54:04.096Z,20.48
2022-08-22T19:56:51.165Z,16.55
2022-08-22T19:59:25.750Z,12.98
2022-08-22T20:02:02.422Z,14.93
2022-08-22T20:04:50.026Z,19.70
2022-08-22T20:07:30.423Z,13.63
2022-08-22T20:12:38.489Z,14.18
2022-08-22T20:15:18.258Z,17.27
2022-08-22T20:18:11.713Z,19.52
2022-08-22T20:20:55.564Z,16.98
2022-08-22T20:23:28.855Z,22.90
2022-08-22T20:25:58.105Z,16.20
2022-08-22T20:28:37.105Z,18.00
2022-08-22T20:31:11.183Z,15.57
2022-08-22T20:33:42.487Z,30.27
2022-08-22T20:36:27.277Z,20.38
2022-08-22T20:39:03.528Z,17.20
2022-08-22T20:41:35.838Z,17.92
2022-08-22T20:44:12.494Z,22.05
2022-08-22T20:46:48.413Z,21.35
2022-08-22T20:49:24.530Z,15.20
2022-08-22T20:51:55.604Z,18.77
2022-08-22T20:54:28.836Z,23.13
2022-08-22T20:57:00.213Z,16.52
2022-08-22T20:59:33.404Z,16.98
2022-08-22T21:02:09.039Z,22.85
2022-08-22T21:04:44.348Z,20.67
2022-08-22T21:07:13.100Z,27.08
2022-08-22T21:10:00.724Z,16.42
2022-08-22T21:12:29.487Z,19.48
2022-08-22T21:14:58.443Z,19.50
2022-08-22T21:17:34.536Z,28.33
2022-08-22T21:20:21.279Z,20.77
2022-08-22T21:22:50.653Z,25.58
2022-08-22T21:25:20.823Z,43.88
2022-08-22T21:30:43.854Z,21.52
2022-08-22T21:33:23.669Z,20.60
2022-08-22T21:35:57.208Z,18.15
2022-08-22T21:38:26.421Z,21.60
2022-08-22T21:41:07.151Z,13.15
2022-08-22T21:43:38.096Z,22.73
2022-08-22T21:46:07.880Z,21.67
2022-08-22T21:48:43.842Z,23.83
2022-08-22T21:51:43.092Z,28.83
2022-08-22T21:54:48.244Z,32.65
2022-08-22T21:57:35.572Z,26.30
2022-08-22T22:00:12.982Z,22.48
2022-08-22T22:02:43.841Z,25.65
2022-08-22T22:05:16.995Z,22.52
2022-08-22T22:07:46.635Z,27.05
2022-08-22T22:10:17.387Z,24.27
2022-08-22T22:12:49.297Z,22.70
2022-08-22T22:15:20.133Z,20.15
2022-08-22T22:17:48.843Z,31.98
2022-08-22T22:20:18.721Z,23.98
2022-08-22T22:22:47.620Z,26.50
2022-08-22T22:25:41.290Z,24.30
2022-08-22T22:28:10.159Z,22.10
2022-08-22T22:30:38.903Z,25.95
2022-08-22T22:33:07.683Z,29.13
2022-08-22T22:35:39.271Z,22.10
2022-08-22T22:38:08.554Z,27.63
2022-08-22T22:40:37.076Z,28.17
2022-08-22T22:43:07.166Z,17.60
2022-08-22T22:45:35.901Z,32.17
2022-08-22T22:48:07.125Z,25.02
2022-08-22T22:50:40.700Z,26.15
2022-08-22T22:53:09.649Z,22.75
2022-08-22T22:55:41.708Z,25.58
2022-08-22T22:58:13.644Z,25.45
2022-08-22T23:00:43.838Z,22.27
2022-08-22T23:03:12.502Z,30.15
2022-08-22T23:05:41.183Z,27.30
2022-08-22T23:08:09.783Z,23.77
2022-08-22T23:10:38.191Z,25.52
2022-08-22T23:13:07.102Z,33.97
2022-08-22T23:15:38.494Z,37.63
2022-08-22T23:18:07.173Z,30.05
2022-08-22T23:20:36.046Z,25.30
2022-08-22T23:23:05.079Z,30.40
2022-08-22T23:25:33.440Z,22.83
2022-08-22T23:28:02.521Z,31.70
2022-08-22T23:30:32.066Z,30.53
2022-08-22T23:33:02.466Z,39.63
2022-08-22T23:35:31.158Z,32.22
2022-08-22T23:37:59.884Z,26.50
2022-08-22T23:40:28.340Z,31.67
2022-08-22T23:42:57.123Z,24.40
2022-08-22T23:45:26.592Z,33.80
2022-08-22T23:47:55.371Z,30.83
2022-08-22T23:50:25.452Z,32.67
2022-08-22T23:52:53.839Z,34.15
2022-08-22T23:55:22.515Z,27.63
2022-08-22T23:57:51.185Z,30.65
